createdAt,value
2023-02-16T00:03:59.272Z,6.37
2023-02-16T00:09:21.793Z,6.10
2023-02-16T00:14:43.377Z,6.40
2023-02-16T00:20:14.212Z,5.87
2023-02-16T00:25:36.356Z,6.53
2023-02-16T00:30:57.869Z,6.43
2023-02-16T00:36:19.446Z,7.10
2023-02-16T00:41:54.007Z,7.13
2023-02-16T00:47:32.226Z,6.83
2023-02-16T00:52:54.470Z,7.40
2023-02-16T00:58:30.950Z,6.97
2023-02-16T01:03:52.599Z,7.20
2023-02-16T01:09:35.609Z,7.80
2023-02-16T01:14:57.179Z,7.23
2023-02-16T01:20:21.456Z,7.67
2023-02-16T01:25:42.888Z,7.83
2023-02-16T01:31:04.993Z,7.33
2023-02-16T01:36:37.569Z,8.23
2023-02-16T01:42:07.166Z,8.47
2023-02-16T01:47:50.011Z,7.93
2023-02-16T01:53:35.091Z,7.53
2023-02-16T01:59:00.827Z,8.50
2023-02-16T02:05:00.832Z,8.13
2023-02-16T02:10:25.684Z,9.37
2023-02-16T02:15:47.071Z,7.73
2023-02-16T02:21:49.598Z,8.40
2023-02-16T02:27:27.004Z,7.83
2023-02-16T02:32:52.073Z,8.33
2023-02-16T02:38:48.826Z,8.73
2023-02-16T02:44:10.541Z,9.17
2023-02-16T02:49:31.606Z,10.37
2023-02-16T02:55:11.616Z,9.93
2023-02-16T03:00:44.887Z,8.93
2023-02-16T03:06:17.531Z,10.00
2023-02-16T03:11:57.658Z,10.00
2023-02-16T03:17:44.850Z,9.47
2023-02-16T03:23:26.900Z,10.67
2023-02-16T03:29:07.993Z,11.83
2023-02-16T03:34:31.078Z,11.10
2023-02-16T03:40:10.805Z,11.50
2023-02-16T03:45:35.243Z,11.80
2023-02-16T03:50:56.393Z,12.20
2023-02-16T03:56:18.338Z,11.63
2023-02-16T04:01:39.864Z,12.10
2023-02-16T04:07:01.459Z,13.17
2023-02-16T04:12:37.905Z,11.73
2023-02-16T04:18:00.190Z,11.83
2023-02-16T04:23:21.703Z,12.60
2023-02-16T04:28:42.861Z,12.80
2023-02-16T04:34:04.339Z,12.37
2023-02-16T04:39:25.804Z,11.33
2023-02-16T04:44:47.309Z,12.53
2023-02-16T04:50:10.097Z,13.00
2023-02-16T04:55:31.600Z,12.27
2023-02-16T05:00:52.901Z,12.50
2023-02-16T05:06:14.456Z,12.50
2023-02-16T05:11:55.308Z,13.20
2023-02-16T05:17:22.514Z,13.10
2023-02-16T05:22:45.706Z,14.17
2023-02-16T05:28:07.224Z,14.67
2023-02-16T05:33:28.629Z,13.37
2023-02-16T05:38:50.392Z,12.73
2023-02-16T05:44:12.269Z,12.93
2023-02-16T05:49:33.518Z,13.40
2023-02-16T05:54:54.886Z,13.60
2023-02-16T06:00:16.959Z,13.47
2023-02-16T06:05:38.589Z,13.20
2023-02-16T06:11:00.481Z,14.87
2023-02-16T06:16:22.101Z,14.27
2023-02-16T06:21:44.187Z,14.77
2023-02-16T06:27:05.975Z,14.47
2023-02-16T06:32:27.423Z,13.97
2023-02-16T06:37:49.099Z,12.13
2023-02-16T06:43:10.518Z,14.77
2023-02-16T06:48:32.162Z,15.13
2023-02-16T06:53:53.865Z,13.87
2023-02-16T06:59:15.424Z,14.13
2023-02-16T07:04:37.266Z,13.67
2023-02-16T07:09:58.892Z,13.80
2023-02-16T07:15:20.660Z,14.77
2023-02-16T07:20:42.089Z,14.20
2023-02-16T07:26:03.600Z,16.00
2023-02-16T07:31:27.949Z,14.67
2023-02-16T07:36:49.646Z,14.47
2023-02-16T07:42:11.149Z,14.00
2023-02-16T07:47:32.735Z,13.30
2023-02-16T07:52:54.166Z,14.93
2023-02-16T07:58:27.394Z,15.97
2023-02-16T08:03:49.637Z,15.73
2023-02-16T08:09:11.276Z,14.53
2023-02-16T08:14:32.776Z,15.00
2023-02-16T08:19:54.317Z,14.57
2023-02-16T08:25:16.220Z,15.00
2023-02-16T08:30:38.690Z,14.27
2023-02-16T08:36:00.191Z,13.20
2023-02-16T08:41:24.815Z,14.27
2023-02-16T08:46:47.725Z,11.70
2023-02-16T08:52:12.451Z,13.47
2023-02-16T08:57:37.400Z,12.97
2023-02-16T09:03:00.300Z,13.70
2023-02-16T09:08:21.970Z,13.90
2023-02-16T09:13:43.519Z,13.83
2023-02-16T09:19:05.353Z,13.60
2023-02-16T09:24:27.195Z,11.53
2023-02-16T09:29:49.828Z,14.10
2023-02-16T09:35:11.811Z,13.87
2023-02-16T09:40:33.672Z,13.37
2023-02-16T09:45:58.979Z,13.57
2023-02-16T09:51:34.949Z,14.80
2023-02-16T09:57:25.970Z,12.37
2023-02-16T10:03:18.474Z,13.10
2023-02-16T10:08:50.352Z,14.90
2023-02-16T10:14:30.351Z,10.93
2023-02-16T10:20:11.477Z,14.43
2023-02-16T10:26:04.791Z,14.10
2023-02-16T10:31:43.642Z,15.13
2023-02-16T10:37:16.083Z,14.97
2023-02-16T10:42:58.154Z,13.27
2023-02-16T10:48:23.703Z,14.73
2023-02-16T10:54:01.437Z,14.30
2023-02-16T10:59:26.021Z,13.93
2023-02-16T11:04:50.172Z,14.13
2023-02-16T11:10:33.687Z,14.00
2023-02-16T11:15:57.980Z,13.43
2023-02-16T11:21:19.619Z,11.97
2023-02-16T11:26:40.825Z,12.73
2023-02-16T11:32:08.541Z,12.17
2023-02-16T11:37:33.639Z,11.97
2023-02-16T11:42:58.960Z,11.83
2023-02-16T11:48:28.768Z,12.03
2023-02-16T11:54:01.454Z,12.83
2023-02-16T11:59:23.466Z,13.17
2023-02-16T12:04:52.860Z,12.40
2023-02-16T12:10:26.139Z,13.40
2023-02-16T12:16:07.534Z,13.50
2023-02-16T12:21:48.164Z,13.90
2023-02-16T12:28:00.774Z,14.80
2023-02-16T12:33:35.922Z,15.10
2023-02-16T12:39:18.316Z,14.83
2023-02-16T12:45:01.659Z,16.10
2023-02-16T12:50:27.942Z,16.10
2023-02-16T12:56:01.307Z,15.70
2023-02-16T13:01:30.966Z,15.80
2023-02-16T13:07:02.237Z,15.13
2023-02-16T13:12:48.822Z,14.80
2023-02-16T13:18:24.098Z,17.40
2023-02-16T13:24:07.099Z,17.03
2023-02-16T13:29:52.746Z,15.40
2023-02-16T13:35:36.436Z,17.07
2023-02-16T13:40:57.653Z,16.27
2023-02-16T13:46:50.280Z,17.10
2023-02-16T13:52:31.738Z,17.43
2023-02-16T13:58:08.249Z,17.57
2023-02-16T14:03:38.383Z,17.23
2023-02-16T14:09:12.179Z,17.53
2023-02-16T14:14:42.589Z,17.00
2023-02-16T14:20:06.629Z,16.90
2023-02-16T14:25:29.106Z,16.63
2023-02-16T14:30:57.899Z,17.43
2023-02-16T14:36:21.959Z,15.30
2023-02-16T14:41:43.526Z,16.30
2023-02-16T14:47:23.445Z,16.53
2023-02-16T14:52:45.986Z,17.37
2023-02-16T14:58:23.571Z,15.83
2023-02-16T15:03:51.754Z,15.97
2023-02-16T15:09:31.463Z,15.97
2023-02-16T15:15:07.826Z,15.73
2023-02-16T15:20:36.838Z,15.83
2023-02-16T15:26:05.151Z,15.37
2023-02-16T15:31:38.369Z,14.03
2023-02-16T15:37:01.191Z,13.90
2023-02-16T15:42:27.750Z,14.70
2023-02-16T15:47:49.291Z,14.53
2023-02-16T15:53:25.020Z,14.10
2023-02-16T15:58:46.441Z,14.50
2023-02-16T16:04:28.799Z,14.10
2023-02-16T16:09:51.520Z,14.30
2023-02-16T16:15:23.823Z,14.23
2023-02-16T16:20:45.483Z,16.50
2023-02-16T16:26:21.360Z,15.87
2023-02-16T16:31:43.648Z,15.40
2023-02-16T16:37:07.690Z,14.53
2023-02-16T16:42:29.363Z,15.47
2023-02-16T16:47:52.234Z,13.57
2023-02-16T16:53:31.802Z,15.73
2023-02-16T16:58:56.980Z,14.07
2023-02-16T17:04:20.785Z,14.07
2023-02-16T17:09:42.359Z,15.70
2023-02-16T17:15:06.324Z,17.57
2023-02-16T17:20:27.624Z,15.27
2023-02-16T17:25:49.732Z,15.07
2023-02-16T17:31:11.794Z,15.00
2023-02-16T17:36:34.497Z,14.63
2023-02-16T17:41:56.049Z,16.27
2023-02-16T17:47:17.973Z,15.90
2023-02-16T17:52:40.019Z,16.00
2023-02-16T17:58:01.086Z,16.40
2023-02-16T18:03:23.141Z,16.77
2023-02-16T18:08:45.121Z,18.87
2023-02-16T18:14:06.348Z,19.20
2023-02-16T18:19:28.483Z,18.73
2023-02-16T18:24:50.999Z,17.47
2023-02-16T18:30:13.569Z,19.80
2023-02-16T18:35:35.110Z,18.10
2023-02-16T18:40:56.643Z,17.67
2023-02-16T18:46:18.743Z,18.37
2023-02-16T18:51:39.850Z,18.33
2023-02-16T18:57:01.213Z,18.07
2023-02-16T19:02:22.711Z,19.43
2023-02-16T19:07:43.971Z,18.90
2023-02-16T19:13:07.137Z,17.73
2023-02-16T19:18:29.392Z,18.77
2023-02-16T19:23:50.743Z,17.33
2023-02-16T19:29:12.997Z,17.37
2023-02-16T19:34:35.193Z,18.57
2023-02-16T19:39:56.703Z,21.93
2023-02-16T19:45:18.157Z,19.30
2023-02-16T19:50:39.335Z,19.00
2023-02-16T19:56:03.480Z,18.37
2023-02-16T20:01:26.766Z,19.57
2023-02-16T20:06:48.997Z,18.90
2023-02-16T20:12:10.415Z,18.50
2023-02-16T20:17:31.873Z,17.13
2023-02-16T20:22:53.290Z,19.73
2023-02-16T20:28:16.071Z,18.40
2023-02-16T20:33:37.475Z,18.50
2023-02-16T20:38:58.984Z,18.10
2023-02-16T20:44:25.406Z,17.77
2023-02-16T20:49:47.090Z,15.43
2023-02-16T20:55:09.863Z,17.87
2023-02-16T21:00:31.504Z,17.80
2023-02-16T21:05:54.591Z,17.20
2023-02-16T21:11:16.059Z,16.60
2023-02-16T21:16:37.946Z,17.33
2023-02-16T21:21:59.677Z,15.17
2023-02-16T21:27:21.193Z,15.87
2023-02-16T21:32:42.841Z,16.00
2023-02-16T21:38:04.722Z,15.97
2023-02-16T21:43:26.079Z,14.57
2023-02-16T21:48:47.847Z,15.33
2023-02-16T21:54:13.998Z,13.37
2023-02-16T21:59:35.392Z,15.00
2023-02-16T22:04:56.898Z,14.77
2023-02-16T22:10:18.423Z,15.00
2023-02-16T22:15:40.189Z,14.67
2023-02-16T22:21:04.272Z,13.97
2023-02-16T22:26:31.875Z,14.07
2023-02-16T22:31:53.367Z,14.53
2023-02-16T22:37:14.797Z,13.43
2023-02-16T22:42:36.508Z,13.13
2023-02-16T22:47:58.460Z,14.20
2023-02-16T22:53:19.616Z,14.13
2023-02-16T22:58:41.015Z,13.50
2023-02-16T23:04:02.935Z,14.27
2023-02-16T23:09:24.363Z,12.83
2023-02-16T23:14:45.809Z,13.43
2023-02-16T23:20:07.452Z,14.07
2023-02-16T23:25:34.502Z,13.23
2023-02-16T23:30:57.562Z,12.87
2023-02-16T23:36:19.381Z,13.43
2023-02-16T23:41:41.481Z,13.10
2023-02-16T23:47:03.010Z,12.40
2023-02-16T23:52:24.682Z,13.13
2023-02-16T23:57:46.117Z,11.90
